Back to top

Worland, WY weather

Worland Municipal Airport, Worland, WY: 7/22/2019 13:53
Visibility10 statute milesclear sky
View 7-Day Forecast
Area Summary
Sky/CloudsSky Clear
Weather [last 24 hours]None
Pressure30.16 in.Hg (1021 hPa)
Dew Point54 °F (12.2 °C)
Relative Humidity28.6 %
Temperature91 °F (32.8 °C)red thermometer
Reading TimeMinimum to Maximum Temperature
6-hr ending 7/22@11:5354 °F to 82.9 °F (12.2 °C to 28.3 °C)
6-hr ending 7/22@05:5355 °F to 70 °F (12.8 °C to 21.1 °C)
6-hr ending 7/21@23:5366.9 °F to 84 °F (19.4 °C to 28.9 °C)
6-hr ending 7/21@17:5371.1 °F to 84 °F (21.7 °C to 28.9 °C)
24-hr ending 7/22@00:5352 °F to 84 °F (11.1 °C to 28.9 °C)
Wind6.9 MPH (6 KT)
Wind FromNorth (360 Degrees)
Twilight Begins05:14Sunshine Yesterday
Sunrise05:49N/A
Sunset20:47
Twilight Ends21:21
METARKWRL 221953Z AUTO 36006KT 10SM CLR 33/12 A3016 RMK AO2 SLP165 T03280122
Tags: